Savoy, Texas
Current Conditions -  °F | °C
As of 5:35 PM on Monday 22 Dec 2014 (Local Time) from KGYI Reporting Station
Clear Clear  
Wind Chill: 56°   Ceiling: Unl
Heat Index: 56°   Visibility: 10mi
Dew Point: 48°   Wind: 0mph
Humidity: 75%   Direction: NA
Pressure: 29.63"   Gusts: NA
Location:  33.6°N, 96.37°W
Report Text: KGYI 222335Z AUTO 00000KT 10SM CLR 13/09 A2963 RMK AO2 T01310087
Loading
Personal Weather Stations






























Interactive Weather Map New forecast layout! Learn more

10-Day Weather Forecast

Advertisements
Track Severe Weather on mobile